• Join FlightAware (Why Join?)
  • Login
  • US Flag 
08:57PM EDT


 

Airport Tracker/Info


-or-


 

Live Flight TrackerFlight Track Log ✈ BNA785 ✈ 28-Aug-2013 ✈ KHMZ - KPNE

Flight Track Log - Related Links

Times and Time Zones

All times are in EDT time to prevent confusion due to time zone crossing. See the BNA785 flight status page for this flight to view local times or setup timezone preferences in your user account.

Time Position Orientation Groundspeed Altitude Reporting Facility
EDT Latitude Longitude Course Direction KTS MPH feet Rate Location/Type
09:28AM 40.1178 -78.5469 81° East 194 223 4,000  Level Cleveland Center
09:29AM 40.1339 -78.4106 81° East 306 352 7,400 2,640 Climbing Cleveland Center
09:31AM 40.1342 -78.1619 90° East 292 336 13,900 2,340 Climbing New York Center
09:32AM 40.1333 -78.0450 90° East 305 351 15,000 540 Climbing New York Center
09:33AM 40.1347 -77.9175 89° East 331 381 15,000  Level New York Center
09:34AM 40.1322 -77.7869 91° East 346 398 15,000  Level New York Center
09:35AM 40.1336 -77.6567 89° East 352 405 15,000  Level New York Center
09:36AM 40.1306 -77.5286 92° East 347 399 15,100  Climbing New York Center
09:37AM 40.1311 -77.4067 90° East 347 399 15,100  Level New York Center
09:38AM 40.1297 -77.2814 91° East 347 399 15,100 -60 Level New York Center
09:39AM 40.1283 -77.1564 91° East 347 399 15,000  Descending New York Center
09:40AM 40.1286 -77.0317 90° East 342 394 15,100  Climbing New York Center
09:41AM 40.1250 -76.9061 92° East 342 394 15,100 -420 Level New York Center
09:42AM 40.1078 -76.7933 101° East 352 405 14,300 -960 Descending New York Center
09:43AM 40.0897 -76.6561 100° East 352 405 13,200 -1,200 Descending New York Center
09:44AM 40.0747 -76.5383 99° East 341 392 11,900 -1,620 Descending New York Center
09:45AM 40.0594 -76.4231 100° East 336 387 10,000 -1,500 Descending New York Center
09:46AM 40.0469 -76.3325 100° East 304 350 9,000 -540 Descending New York Center
09:47AM 40.0375 -76.2206 96° East 294 338 9,000 -120 Level New York Center
09:48AM 40.0181 -76.1025 102° East 299 344 8,800 -900 Descending New York Center
09:49AM 40.0103 -75.9989 96° East 294 338 7,200 -960 Descending New York Center
09:50AM 40.0267 -75.9106 76° East 287 330 6,900 -600 Descending New York Center
09:51AM 40.0431 -75.8197 77° East 269 310 6,100 -480 Descending New York Center
09:52AM 40.0639 -75.7181 75° East 259 298 6,000 -420 Descending New York Center
09:53AM 40.0781 -75.6269 78° East 264 304 5,300 -900 Descending New York Center
09:54AM 40.0989 -75.5253 75° East 264 304 4,200 -660 Descending New York Center
09:55AM 40.1147 -75.4447 76° East 259 298 4,000 -120 Descending New York Center
09:56AM 40.1353 -75.3431 75° East 259 298 4,000  Level New York Center
09:57AM 40.1536 -75.2519 75° East 259 298 4,000 -300 Level New York Center
09:58AM 40.1694 -75.1578 78° East 259 298 3,500 -540 Descending New York Center
09:59AM 40.1894 -75.0694 73° East 254 292 3,000 -300 Descending New York Center
10:00AM 40.2050 -74.9861 76° East 244 281 3,000  Level New York Center
10:01AM 40.2181 -74.9108 77° East 220 253 3,000 -360 Level New York Center
10:03AM 40.1500 -74.9000 173° South 162 186 2,100 -600 Descending Philadelphia TRACON
10:04AM 40.1333 -74.9500 246° West 106 122 1,300 -600 Descending Philadelphia TRACON
10:06AM 40.1000 -74.9833 217° Southwest 104 120 700 -600 Descending Philadelphia TRACON
10:08AM 40.0819 -75.0106 185° South  Level Estimated